sensor_id;sensor_type;location;lat;lon;timestamp;temperature;humidity
9385;DHT22;4732;49.340;10.886;2023-03-21T07:55:20;10.00;99.90
9385;DHT22;4732;49.340;10.886;2023-03-21T07:58:04;10.30;99.90
9385;DHT22;4732;49.340;10.886;2023-03-21T08:00:30;10.50;99.90
9385;DHT22;4732;49.340;10.886;2023-03-21T08:02:56;10.80;99.90
9385;DHT22;4732;49.340;10.886;2023-03-21T08:05:24;10.90;99.90
9385;DHT22;4732;49.340;10.886;2023-03-21T08:07:50;11.10;99.90
9385;DHT22;4732;49.340;10.886;2023-03-21T08:10:16;11.30;99.90
9385;DHT22;4732;49.340;10.886;2023-03-21T08:12:42;11.40;99.90
9385;DHT22;4732;49.340;10.886;2023-03-21T08:15:08;11.60;99.90
9385;DHT22;4732;49.340;10.886;2023-03-21T08:17:34;11.60;99.90
9385;DHT22;4732;49.340;10.886;2023-03-21T08:20:04;11.60;99.90
9385;DHT22;4732;49.340;10.886;2023-03-21T08:22:32;11.50;99.90
9385;DHT22;4732;49.340;10.886;2023-03-21T08:24:58;11.50;99.90
9385;DHT22;4732;49.340;10.886;2023-03-21T08:27:23;11.40;99.90
9385;DHT22;4732;49.340;10.886;2023-03-21T08:29:50;11.40;99.90
9385;DHT22;4732;49.340;10.886;2023-03-21T08:32:17;11.50;99.90
9385;DHT22;4732;49.340;10.886;2023-03-21T08:34:43;11.60;99.90
9385;DHT22;4732;49.340;10.886;2023-03-21T08:37:09;11.70;99.90
9385;DHT22;4732;49.340;10.886;2023-03-21T08:39:35;11.80;99.90
9385;DHT22;4732;49.340;10.886;2023-03-21T08:42:00;11.80;99.90
9385;DHT22;4732;49.340;10.886;2023-03-21T08:44:26;12.00;99.90
9385;DHT22;4732;49.340;10.886;2023-03-21T08:46:51;12.10;99.90
9385;DHT22;4732;49.340;10.886;2023-03-21T08:49:17;12.20;99.90
9385;DHT22;4732;49.340;10.886;2023-03-21T08:51:42;12.40;99.90
9385;DHT22;4732;49.340;10.886;2023-03-21T08:54:19;12.50;99.90
9385;DHT22;4732;49.340;10.886;2023-03-21T08:56:45;12.40;99.90
9385;DHT22;4732;49.340;10.886;2023-03-21T08:59:11;12.50;99.90
9385;DHT22;4732;49.340;10.886;2023-03-21T09:01:36;12.60;99.90
9385;DHT22;4732;49.340;10.886;2023-03-21T09:04:02;12.70;99.90
9385;DHT22;4732;49.340;10.886;2023-03-21T09:06:28;12.80;99.90
9385;DHT22;4732;49.340;10.886;2023-03-21T09:08:54;12.90;99.90
9385;DHT22;4732;49.340;10.886;2023-03-21T09:11:21;12.90;99.90
9385;DHT22;4732;49.340;10.886;2023-03-21T09:13:46;12.90;99.90
9385;DHT22;4732;49.340;10.886;2023-03-21T09:16:12;12.80;99.90
9385;DHT22;4732;49.340;10.886;2023-03-21T09:18:38;12.80;99.90
9385;DHT22;4732;49.340;10.886;2023-03-21T09:21:12;12.90;99.90
9385;DHT22;4732;49.340;10.886;2023-03-21T09:23:40;13.10;99.90
9385;DHT22;4732;49.340;10.886;2023-03-21T09:26:07;13.10;99.90
9385;DHT22;4732;49.340;10.886;2023-03-21T09:28:34;13.30;99.90
9385;DHT22;4732;49.340;10.886;2023-03-21T09:31:01;13.20;99.90
9385;DHT22;4732;49.340;10.886;2023-03-21T09:33:28;13.30;99.90
9385;DHT22;4732;49.340;10.886;2023-03-21T09:35:54;13.40;99.90
9385;DHT22;4732;49.340;10.886;2023-03-21T09:38:20;13.40;99.90
9385;DHT22;4732;49.340;10.886;2023-03-21T09:46:01;13.60;99.90
9385;DHT22;4732;49.340;10.886;2023-03-21T09:48:42;13.70;99.90
9385;DHT22;4732;49.340;10.886;2023-03-21T09:51:14;13.80;99.90
9385;DHT22;4732;49.340;10.886;2023-03-21T09:53:45;13.70;99.90
9385;DHT22;4732;49.340;10.886;2023-03-21T09:56:12;13.70;99.90
9385;DHT22;4732;49.340;10.886;2023-03-21T09:59:02;13.80;99.90
9385;DHT22;4732;49.340;10.886;2023-03-21T10:01:29;13.90;99.90
9385;DHT22;4732;49.340;10.886;2023-03-21T10:04:01;14.00;99.90
9385;DHT22;4732;49.340;10.886;2023-03-21T10:06:29;14.80;99.90
9385;DHT22;4732;49.340;10.886;2023-03-21T10:09:10;14.10;99.90
9385;DHT22;4732;49.340;10.886;2023-03-21T10:11:47;14.10;99.90
9385;DHT22;4732;49.340;10.886;2023-03-21T10:14:22;14.10;99.90
9385;DHT22;4732;49.340;10.886;2023-03-21T10:17:28;14.10;99.90
9385;DHT22;4732;49.340;10.886;2023-03-21T10:20:15;14.20;99.90
9385;DHT22;4732;49.340;10.886;2023-03-21T10:22:43;14.30;99.90
9385;DHT22;4732;49.340;10.886;2023-03-21T10:25:24;14.40;99.90
9385;DHT22;4732;49.340;10.886;2023-03-21T10:27:51;14.50;99.90
9385;DHT22;4732;49.340;10.886;2023-03-21T10:30:27;14.70;99.90
9385;DHT22;4732;49.340;10.886;2023-03-21T10:32:56;15.50;99.90
9385;DHT22;4732;49.340;10.886;2023-03-21T10:35:23;15.00;99.90
9385;DHT22;4732;49.340;10.886;2023-03-21T10:37:48;15.10;99.90
9385;DHT22;4732;49.340;10.886;2023-03-21T10:40:15;15.10;99.90
9385;DHT22;4732;49.340;10.886;2023-03-21T10:42:41;15.20;99.90
9385;DHT22;4732;49.340;10.886;2023-03-21T10:45:17;15.30;99.90
9385;DHT22;4732;49.340;10.886;2023-03-21T10:47:46;15.30;99.90
9385;DHT22;4732;49.340;10.886;2023-03-21T10:50:15;15.40;99.90
9385;DHT22;4732;49.340;10.886;2023-03-21T10:52:46;15.30;99.90
9385;DHT22;4732;49.340;10.886;2023-03-21T10:55:22;15.60;99.90
9385;DHT22;4732;49.340;10.886;2023-03-21T10:57:54;15.80;99.90
9385;DHT22;4732;49.340;10.886;2023-03-21T11:00:25;15.80;99.90
9385;DHT22;4732;49.340;10.886;2023-03-21T11:02:52;16.40;99.90
9385;DHT22;4732;49.340;10.886;2023-03-21T11:07:44;16.10;99.90
9385;DHT22;4732;49.340;10.886;2023-03-21T11:10:24;15.90;99.90
9385;DHT22;4732;49.340;10.886;2023-03-21T11:12:55;16.10;99.90
9385;DHT22;4732;49.340;10.886;2023-03-21T11:17:53;16.30;99.90
9385;DHT22;4732;49.340;10.886;2023-03-21T11:20:19;16.30;99.90
9385;DHT22;4732;49.340;10.886;2023-03-21T11:22:46;16.20;99.90
9385;DHT22;4732;49.340;10.886;2023-03-21T11:27:54;16.40;99.90
9385;DHT22;4732;49.340;10.886;2023-03-21T11:30:22;16.10;99.90
9385;DHT22;4732;49.340;10.886;2023-03-21T11:33:01;16.50;99.90
9385;DHT22;4732;49.340;10.886;2023-03-21T11:35:36;16.70;99.90
9385;DHT22;4732;49.340;10.886;2023-03-21T11:38:03;16.80;99.90
9385;DHT22;4732;49.340;10.886;2023-03-21T11:43:25;19.60;99.90
9385;DHT22;4732;49.340;10.886;2023-03-21T11:48:27;17.10;99.90
9385;DHT22;4732;49.340;10.886;2023-03-21T11:51:03;17.20;99.90
9385;DHT22;4732;49.340;10.886;2023-03-21T11:54:08;17.20;99.90
9385;DHT22;4732;49.340;10.886;2023-03-21T11:56:40;17.20;99.90
9385;DHT22;4732;49.340;10.886;2023-03-21T11:59:18;17.30;99.90
9385;DHT22;4732;49.340;10.886;2023-03-21T12:13:52;17.60;99.90
9385;DHT22;4732;49.340;10.886;2023-03-21T12:19:13;18.00;99.90
9385;DHT22;4732;49.340;10.886;2023-03-21T12:24:51;18.30;99.90
9385;DHT22;4732;49.340;10.886;2023-03-21T12:27:34;18.90;99.90
9385;DHT22;4732;49.340;10.886;2023-03-21T12:30:18;18.30;99.90
9385;DHT22;4732;49.340;10.886;2023-03-21T12:33:12;18.20;99.90
9385;DHT22;4732;49.340;10.886;2023-03-21T12:36:19;18.00;99.90
9385;DHT22;4732;49.340;10.886;2023-03-21T12:44:23;18.20;99.90
9385;DHT22;4732;49.340;10.886;2023-03-21T12:49:23;17.50;99.90
9385;DHT22;4732;49.340;10.886;2023-03-21T12:51:56;17.40;99.90
9385;DHT22;4732;49.340;10.886;2023-03-21T12:54:34;17.50;99.90
9385;DHT22;4732;49.340;10.886;2023-03-21T12:57:18;18.30;99.90
9385;DHT22;4732;49.340;10.886;2023-03-21T12:59:55;18.10;99.90
9385;DHT22;4732;49.340;10.886;2023-03-21T13:02:35;17.50;99.90
9385;DHT22;4732;49.340;10.886;2023-03-21T13:05:16;17.50;99.90
9385;DHT22;4732;49.340;10.886;2023-03-21T13:08:01;17.80;99.90
9385;DHT22;4732;49.340;10.886;2023-03-21T13:10:29;17.90;99.90
9385;DHT22;4732;49.340;10.886;2023-03-21T13:13:30;18.20;99.90
9385;DHT22;4732;49.340;10.886;2023-03-21T13:21:14;18.70;99.90
9385;DHT22;4732;49.340;10.886;2023-03-21T13:24:01;17.90;99.90
9385;DHT22;4732;49.340;10.886;2023-03-21T13:26:39;18.20;99.90
9385;DHT22;4732;49.340;10.886;2023-03-21T13:29:13;18.20;99.90
9385;DHT22;4732;49.340;10.886;2023-03-21T13:31:44;18.30;99.90
9385;DHT22;4732;49.340;10.886;2023-03-21T13:34:12;17.70;99.90
9385;DHT22;4732;49.340;10.886;2023-03-21T13:36:39;18.10;99.90
9385;DHT22;4732;49.340;10.886;2023-03-21T13:39:16;18.30;99.90
9385;DHT22;4732;49.340;10.886;2023-03-21T13:41:43;18.40;99.90
9385;DHT22;4732;49.340;10.886;2023-03-21T13:44:26;18.80;99.90
9385;DHT22;4732;49.340;10.886;2023-03-21T13:47:04;18.10;99.90
9385;DHT22;4732;49.340;10.886;2023-03-21T13:49:35;18.00;99.90
9385;DHT22;4732;49.340;10.886;2023-03-21T13:54:54;18.40;99.90
9385;DHT22;4732;49.340;10.886;2023-03-21T13:59:47;18.60;99.90
9385;DHT22;4732;49.340;10.886;2023-03-21T14:02:28;18.30;99.90
9385;DHT22;4732;49.340;10.886;2023-03-21T14:05:17;18.00;99.90
9385;DHT22;4732;49.340;10.886;2023-03-21T14:07:47;17.70;99.90
9385;DHT22;4732;49.340;10.886;2023-03-21T14:10:36;17.60;99.90
9385;DHT22;4732;49.340;10.886;2023-03-21T14:13:05;17.30;99.90
9385;DHT22;4732;49.340;10.886;2023-03-21T14:15:39;17.30;99.90
9385;DHT22;4732;49.340;10.886;2023-03-21T14:18:06;17.60;99.90
9385;DHT22;4732;49.340;10.886;2023-03-21T14:20:36;18.00;99.90
9385;DHT22;4732;49.340;10.886;2023-03-21T14:23:04;17.60;99.90
9385;DHT22;4732;49.340;10.886;2023-03-21T14:25:37;17.40;99.90
9385;DHT22;4732;49.340;10.886;2023-03-21T14:28:07;17.70;99.90
9385;DHT22;4732;49.340;10.886;2023-03-21T14:30:33;17.40;99.90
9385;DHT22;4732;49.340;10.886;2023-03-21T14:33:17;17.80;99.90
9385;DHT22;4732;49.340;10.886;2023-03-21T14:35:46;17.50;99.90
9385;DHT22;4732;49.340;10.886;2023-03-21T14:38:21;17.70;99.90
9385;DHT22;4732;49.340;10.886;2023-03-21T14:40:49;17.40;99.90
9385;DHT22;4732;49.340;10.886;2023-03-21T14:43:17;17.50;99.90
9385;DHT22;4732;49.340;10.886;2023-03-21T14:45:47;17.50;99.90
9385;DHT22;4732;49.340;10.886;2023-03-21T14:48:14;17.40;99.90
9385;DHT22;4732;49.340;10.886;2023-03-21T14:50:53;16.80;99.90
9385;DHT22;4732;49.340;10.886;2023-03-21T14:53:36;16.90;99.90
9385;DHT22;4732;49.340;10.886;2023-03-21T14:58:33;16.80;99.90
9385;DHT22;4732;49.340;10.886;2023-03-21T15:01:04;17.10;99.90
9385;DHT22;4732;49.340;10.886;2023-03-21T15:03:31;16.60;99.90
9385;DHT22;4732;49.340;10.886;2023-03-21T15:05:58;16.70;99.90
9385;DHT22;4732;49.340;10.886;2023-03-21T15:08:26;16.50;99.90
9385;DHT22;4732;49.340;10.886;2023-03-21T15:11:01;16.80;99.90
9385;DHT22;4732;49.340;10.886;2023-03-21T15:13:51;16.40;99.90
9385;DHT22;4732;49.340;10.886;2023-03-21T15:16:17;16.30;99.90
9385;DHT22;4732;49.340;10.886;2023-03-21T15:18:44;16.00;99.90
9385;DHT22;4732;49.340;10.886;2023-03-21T15:21:28;15.70;99.90
9385;DHT22;4732;49.340;10.886;2023-03-21T15:24:01;15.80;99.90
9385;DHT22;4732;49.340;10.886;2023-03-21T15:26:29;16.30;99.90
9385;DHT22;4732;49.340;10.886;2023-03-21T15:28:57;16.00;99.90
9385;DHT22;4732;49.340;10.886;2023-03-21T15:31:27;16.50;99.90
9385;DHT22;4732;49.340;10.886;2023-03-21T15:33:54;16.10;99.90
9385;DHT22;4732;49.340;10.886;2023-03-21T15:37:03;16.30;99.90
9385;DHT22;4732;49.340;10.886;2023-03-21T15:39:30;15.90;99.90
9385;DHT22;4732;49.340;10.886;2023-03-21T15:42:04;15.60;99.90
9385;DHT22;4732;49.340;10.886;2023-03-21T15:44:31;15.40;99.90
9385;DHT22;4732;49.340;10.886;2023-03-21T15:46:58;15.60;99.90
9385;DHT22;4732;49.340;10.886;2023-03-21T15:49:33;15.50;99.90
9385;DHT22;4732;49.340;10.886;2023-03-21T15:52:14;15.20;99.90
9385;DHT22;4732;49.340;10.886;2023-03-21T15:54:43;15.20;99.90
9385;DHT22;4732;49.340;10.886;2023-03-21T15:57:22;15.20;99.90
9385;DHT22;4732;49.340;10.886;2023-03-21T15:59:54;15.30;99.90
9385;DHT22;4732;49.340;10.886;2023-03-21T16:02:22;17.30;99.90
9385;DHT22;4732;49.340;10.886;2023-03-21T16:04:59;15.20;99.90
9385;DHT22;4732;49.340;10.886;2023-03-21T16:07:25;15.10;99.90
9385;DHT22;4732;49.340;10.886;2023-03-21T16:09:57;14.90;99.90
9385;DHT22;4732;49.340;10.886;2023-03-21T16:12:23;14.90;99.90
9385;DHT22;4732;49.340;10.886;2023-03-21T16:14:49;15.80;99.90
9385;DHT22;4732;49.340;10.886;2023-03-21T16:19:51;16.10;99.90
9385;DHT22;4732;49.340;10.886;2023-03-21T16:22:16;15.00;99.90
9385;DHT22;4732;49.340;10.886;2023-03-21T16:24:44;14.60;99.90
9385;DHT22;4732;49.340;10.886;2023-03-21T16:27:10;15.50;99.90
9385;DHT22;4732;49.340;10.886;2023-03-21T16:29:36;14.50;99.90
9385;DHT22;4732;49.340;10.886;2023-03-21T16:32:02;14.90;99.90
9385;DHT22;4732;49.340;10.886;2023-03-21T16:34:30;14.60;99.90
9385;DHT22;4732;49.340;10.886;2023-03-21T16:36:56;14.40;99.90
9385;DHT22;4732;49.340;10.886;2023-03-21T16:39:23;14.60;99.90
9385;DHT22;4732;49.340;10.886;2023-03-21T16:41:50;14.20;99.90
9385;DHT22;4732;49.340;10.886;2023-03-21T16:44:16;14.40;99.90
9385;DHT22;4732;49.340;10.886;2023-03-21T16:46:45;15.10;99.90
9385;DHT22;4732;49.340;10.886;2023-03-21T16:49:26;14.10;99.90
9385;DHT22;4732;49.340;10.886;2023-03-21T16:51:54;14.00;99.90
9385;DHT22;4732;49.340;10.886;2023-03-21T16:54:20;14.00;99.90
9385;DHT22;4732;49.340;10.886;2023-03-21T16:56:48;14.40;99.90
9385;DHT22;4732;49.340;10.886;2023-03-21T16:59:15;14.20;99.90
9385;DHT22;4732;49.340;10.886;2023-03-21T17:01:41;14.10;99.90
9385;DHT22;4732;49.340;10.886;2023-03-21T17:04:10;14.60;99.90
9385;DHT22;4732;49.340;10.886;2023-03-21T17:06:43;13.70;99.90
9385;DHT22;4732;49.340;10.886;2023-03-21T17:09:11;13.70;99.90
9385;DHT22;4732;49.340;10.886;2023-03-21T17:11:37;13.80;99.90
9385;DHT22;4732;49.340;10.886;2023-03-21T17:14:07;13.50;99.90
9385;DHT22;4732;49.340;10.886;2023-03-21T17:16:33;13.40;99.90
9385;DHT22;4732;49.340;10.886;2023-03-21T17:18:59;13.40;99.90
9385;DHT22;4732;49.340;10.886;2023-03-21T17:21:27;13.20;99.90
9385;DHT22;4732;49.340;10.886;2023-03-21T17:23:53;13.40;99.90
9385;DHT22;4732;49.340;10.886;2023-03-21T17:26:24;13.00;99.90
9385;DHT22;4732;49.340;10.886;2023-03-21T17:28:50;13.70;99.90
9385;DHT22;4732;49.340;10.886;2023-03-21T17:31:18;12.80;99.90
9385;DHT22;4732;49.340;10.886;2023-03-21T17:33:44;13.10;99.90
9385;DHT22;4732;49.340;10.886;2023-03-21T17:38:44;12.60;99.90
9385;DHT22;4732;49.340;10.886;2023-03-21T17:41:17;12.60;99.90
9385;DHT22;4732;49.340;10.886;2023-03-21T17:43:43;12.60;99.90
9385;DHT22;4732;49.340;10.886;2023-03-21T17:46:13;12.50;99.90
9385;DHT22;4732;49.340;10.886;2023-03-21T17:48:38;12.50;99.90
9385;DHT22;4732;49.340;10.886;2023-03-21T17:51:04;12.40;99.90
9385;DHT22;4732;49.340;10.886;2023-03-21T17:53:30;12.40;99.90
9385;DHT22;4732;49.340;10.886;2023-03-21T17:55:55;12.30;99.90
9385;DHT22;4732;49.340;10.886;2023-03-21T17:58:21;12.30;99.90
9385;DHT22;4732;49.340;10.886;2023-03-21T18:00:46;12.30;99.90
9385;DHT22;4732;49.340;10.886;2023-03-21T18:03:12;12.20;99.90
9385;DHT22;4732;49.340;10.886;2023-03-21T18:05:38;12.20;99.90
9385;DHT22;4732;49.340;10.886;2023-03-21T18:08:04;12.20;99.90
9385;DHT22;4732;49.340;10.886;2023-03-21T18:10:30;12.20;99.90
9385;DHT22;4732;49.340;10.886;2023-03-21T18:12:56;12.20;99.90
9385;DHT22;4732;49.340;10.886;2023-03-21T18:15:23;12.10;99.90
9385;DHT22;4732;49.340;10.886;2023-03-21T18:17:49;12.10;99.90
9385;DHT22;4732;49.340;10.886;2023-03-21T18:20:18;12.10;99.90
9385;DHT22;4732;49.340;10.886;2023-03-21T18:22:45;12.10;99.90
9385;DHT22;4732;49.340;10.886;2023-03-21T18:25:12;12.10;99.90
9385;DHT22;4732;49.340;10.886;2023-03-21T18:27:38;12.10;99.90
9385;DHT22;4732;49.340;10.886;2023-03-21T18:30:06;12.10;99.90
9385;DHT22;4732;49.340;10.886;2023-03-21T18:32:35;12.10;99.90
9385;DHT22;4732;49.340;10.886;2023-03-21T18:35:00;12.00;99.90
9385;DHT22;4732;49.340;10.886;2023-03-21T18:37:26;14.60;99.90
9385;DHT22;4732;49.340;10.886;2023-03-21T18:39:55;11.90;99.90
9385;DHT22;4732;49.340;10.886;2023-03-21T18:42:20;11.80;99.90
9385;DHT22;4732;49.340;10.886;2023-03-21T18:44:46;11.70;99.90
9385;DHT22;4732;49.340;10.886;2023-03-21T18:47:13;11.70;99.90
9385;DHT22;4732;49.340;10.886;2023-03-21T18:49:39;11.60;99.90
9385;DHT22;4732;49.340;10.886;2023-03-21T18:52:04;11.70;99.90
9385;DHT22;4732;49.340;10.886;2023-03-21T18:54:31;11.60;99.90
9385;DHT22;4732;49.340;10.886;2023-03-21T18:56:57;11.60;99.90
9385;DHT22;4732;49.340;10.886;2023-03-21T18:59:22;11.80;99.90
9385;DHT22;4732;49.340;10.886;2023-03-21T19:01:49;11.50;99.90
9385;DHT22;4732;49.340;10.886;2023-03-21T19:04:15;11.50;99.90
9385;DHT22;4732;49.340;10.886;2023-03-21T19:06:43;11.40;99.90
9385;DHT22;4732;49.340;10.886;2023-03-21T19:09:09;11.40;99.90
9385;DHT22;4732;49.340;10.886;2023-03-21T19:11:35;11.40;99.90
9385;DHT22;4732;49.340;10.886;2023-03-21T19:14:00;11.40;99.90
9385;DHT22;4732;49.340;10.886;2023-03-21T19:16:26;11.30;99.90
9385;DHT22;4732;49.340;10.886;2023-03-21T19:18:52;11.30;99.90
9385;DHT22;4732;49.340;10.886;2023-03-21T19:21:18;11.30;99.90
9385;DHT22;4732;49.340;10.886;2023-03-21T19:23:44;11.20;99.90
9385;DHT22;4732;49.340;10.886;2023-03-21T19:26:09;11.20;99.90
9385;DHT22;4732;49.340;10.886;2023-03-21T19:28:35;11.10;99.90
9385;DHT22;4732;49.340;10.886;2023-03-21T19:31:05;11.00;99.90
9385;DHT22;4732;49.340;10.886;2023-03-21T19:33:32;11.00;99.90
9385;DHT22;4732;49.340;10.886;2023-03-21T19:35:57;11.20;99.90
9385;DHT22;4732;49.340;10.886;2023-03-21T19:38:23;10.90;99.90
9385;DHT22;4732;49.340;10.886;2023-03-21T19:40:48;10.90;99.90
9385;DHT22;4732;49.340;10.886;2023-03-21T19:43:14;10.90;99.90
9385;DHT22;4732;49.340;10.886;2023-03-21T19:45:44;10.80;99.90
9385;DHT22;4732;49.340;10.886;2023-03-21T19:48:10;10.80;99.90
9385;DHT22;4732;49.340;10.886;2023-03-21T19:50:36;10.80;99.90
9385;DHT22;4732;49.340;10.886;2023-03-21T19:53:01;10.80;99.90
9385;DHT22;4732;49.340;10.886;2023-03-21T19:55:27;10.80;99.90
9385;DHT22;4732;49.340;10.886;2023-03-21T19:57:52;10.80;99.90
9385;DHT22;4732;49.340;10.886;2023-03-21T20:00:18;10.70;99.90
9385;DHT22;4732;49.340;10.886;2023-03-21T20:02:44;10.60;99.90
9385;DHT22;4732;49.340;10.886;2023-03-21T20:05:12;10.60;99.90
9385;DHT22;4732;49.340;10.886;2023-03-21T20:07:38;10.70;99.90
9385;DHT22;4732;49.340;10.886;2023-03-21T20:10:05;10.70;99.90
9385;DHT22;4732;49.340;10.886;2023-03-21T20:12:31;10.80;99.90
9385;DHT22;4732;49.340;10.886;2023-03-21T20:14:57;10.80;99.90
9385;DHT22;4732;49.340;10.886;2023-03-21T20:17:24;10.80;99.90
9385;DHT22;4732;49.340;10.886;2023-03-21T20:19:49;10.90;99.90
9385;DHT22;4732;49.340;10.886;2023-03-21T20:22:15;10.90;99.90
9385;DHT22;4732;49.340;10.886;2023-03-21T20:24:41;10.90;99.90
9385;DHT22;4732;49.340;10.886;2023-03-21T20:27:08;11.00;99.90
9385;DHT22;4732;49.340;10.886;2023-03-21T20:29:38;11.00;99.90
9385;DHT22;4732;49.340;10.886;2023-03-21T20:32:07;11.00;99.90
9385;DHT22;4732;49.340;10.886;2023-03-21T20:34:32;11.00;99.90
9385;DHT22;4732;49.340;10.886;2023-03-21T20:36:59;11.10;99.90
9385;DHT22;4732;49.340;10.886;2023-03-21T20:39:25;11.10;99.90
9385;DHT22;4732;49.340;10.886;2023-03-21T20:41:51;11.10;99.90
9385;DHT22;4732;49.340;10.886;2023-03-21T20:44:19;11.10;99.90
9385;DHT22;4732;49.340;10.886;2023-03-21T20:46:44;11.00;99.90
9385;DHT22;4732;49.340;10.886;2023-03-21T20:49:14;11.20;99.90
9385;DHT22;4732;49.340;10.886;2023-03-21T20:51:41;11.20;99.90
9385;DHT22;4732;49.340;10.886;2023-03-21T20:54:07;11.20;99.90
9385;DHT22;4732;49.340;10.886;2023-03-21T20:56:34;11.20;99.90
9385;DHT22;4732;49.340;10.886;2023-03-21T20:59:00;11.00;99.90
9385;DHT22;4732;49.340;10.886;2023-03-21T21:01:25;11.00;99.90
9385;DHT22;4732;49.340;10.886;2023-03-21T21:03:53;10.90;99.90
9385;DHT22;4732;49.340;10.886;2023-03-21T21:06:21;10.90;99.90
9385;DHT22;4732;49.340;10.886;2023-03-21T21:08:47;10.90;99.90
9385;DHT22;4732;49.340;10.886;2023-03-21T21:11:14;10.90;99.90
9385;DHT22;4732;49.340;10.886;2023-03-21T21:13:41;10.80;99.90
9385;DHT22;4732;49.340;10.886;2023-03-21T21:16:07;10.80;99.90
9385;DHT22;4732;49.340;10.886;2023-03-21T21:18:33;10.80;99.90
9385;DHT22;4732;49.340;10.886;2023-03-21T21:21:01;10.80;99.90
9385;DHT22;4732;49.340;10.886;2023-03-21T21:23:31;10.80;99.90
9385;DHT22;4732;49.340;10.886;2023-03-21T21:25:57;10.80;99.90
9385;DHT22;4732;49.340;10.886;2023-03-21T21:28:23;10.70;99.90
9385;DHT22;4732;49.340;10.886;2023-03-21T21:30:50;10.70;99.90
9385;DHT22;4732;49.340;10.886;2023-03-21T21:33:23;10.70;99.90
9385;DHT22;4732;49.340;10.886;2023-03-21T21:35:49;10.70;99.90
9385;DHT22;4732;49.340;10.886;2023-03-21T21:38:19;10.70;99.90
9385;DHT22;4732;49.340;10.886;2023-03-21T21:40:46;10.70;99.90
9385;DHT22;4732;49.340;10.886;2023-03-21T21:43:12;10.70;99.90
9385;DHT22;4732;49.340;10.886;2023-03-21T21:45:39;10.70;99.90
9385;DHT22;4732;49.340;10.886;2023-03-21T21:48:05;10.60;99.90
9385;DHT22;4732;49.340;10.886;2023-03-21T21:50:31;10.70;99.90
9385;DHT22;4732;49.340;10.886;2023-03-21T21:52:57;10.60;99.90
9385;DHT22;4732;49.340;10.886;2023-03-21T21:55:28;10.60;99.90
9385;DHT22;4732;49.340;10.886;2023-03-21T21:57:54;10.60;99.90
9385;DHT22;4732;49.340;10.886;2023-03-21T22:00:23;10.60;99.90
9385;DHT22;4732;49.340;10.886;2023-03-21T22:02:49;10.60;99.90
9385;DHT22;4732;49.340;10.886;2023-03-21T22:05:16;10.60;99.90
9385;DHT22;4732;49.340;10.886;2023-03-21T22:07:43;10.70;99.90
9385;DHT22;4732;49.340;10.886;2023-03-21T22:10:09;10.60;99.90
9385;DHT22;4732;49.340;10.886;2023-03-21T22:12:35;10.60;99.90
9385;DHT22;4732;49.340;10.886;2023-03-21T22:15:02;10.60;99.90
9385;DHT22;4732;49.340;10.886;2023-03-21T22:17:28;10.60;99.90
9385;DHT22;4732;49.340;10.886;2023-03-21T22:19:53;10.50;99.90
9385;DHT22;4732;49.340;10.886;2023-03-21T22:22:19;10.40;99.90
9385;DHT22;4732;49.340;10.886;2023-03-21T22:24:45;10.50;99.90
9385;DHT22;4732;49.340;10.886;2023-03-21T22:27:10;10.50;99.90
9385;DHT22;4732;49.340;10.886;2023-03-21T22:29:36;10.50;99.90
9385;DHT22;4732;49.340;10.886;2023-03-21T22:32:01;10.50;99.90
9385;DHT22;4732;49.340;10.886;2023-03-21T22:34:27;10.50;99.90
9385;DHT22;4732;49.340;10.886;2023-03-21T22:36:52;10.30;99.90
9385;DHT22;4732;49.340;10.886;2023-03-21T22:39:20;10.40;99.90
9385;DHT22;4732;49.340;10.886;2023-03-21T22:41:53;10.40;99.90
9385;DHT22;4732;49.340;10.886;2023-03-21T22:44:22;10.40;99.90
9385;DHT22;4732;49.340;10.886;2023-03-21T22:46:47;10.50;99.90
9385;DHT22;4732;49.340;10.886;2023-03-21T22:49:13;10.20;99.90
9385;DHT22;4732;49.340;10.886;2023-03-21T22:51:38;10.20;99.90
9385;DHT22;4732;49.340;10.886;2023-03-21T22:54:04;10.20;99.90
9385;DHT22;4732;49.340;10.886;2023-03-21T22:56:30;10.10;99.90
9385;DHT22;4732;49.340;10.886;2023-03-21T22:58:55;10.10;99.90
9385;DHT22;4732;49.340;10.886;2023-03-21T23:01:21;10.20;99.90
9385;DHT22;4732;49.340;10.886;2023-03-21T23:03:47;10.10;99.90
9385;DHT22;4732;49.340;10.886;2023-03-21T23:06:12;10.00;99.90
9385;DHT22;4732;49.340;10.886;2023-03-21T23:08:38;10.00;99.90
9385;DHT22;4732;49.340;10.886;2023-03-21T23:11:07;10.00;99.90
9385;DHT22;4732;49.340;10.886;2023-03-21T23:13:34;10.00;99.90
